Tiempo atmosférico en la estación meteorológica de Calamocha, Teruel (890 m.)



Fecha
DESCASC
Temp. máxima en grados centígrados (hora)
DESCASC
Temp. mínima en grados centígrados (hora)
DESCASC
Temp. media en grados centígrados
DESCASC
Racha de viento máxima en m/sg (hora)
DESCASC
Velocidad máxima media en intervalos de 10 minutos(hora)
DESCASC
Precipitaciones diarias en mm
DESCASC
Precipitaciones de 00:00 a 06:00 en mm
DESCASC
Precipitaciones de 06:00 a 12:00 en mm
DESCASC
Precipitaciones de 12:00 a 18:00 en mm
DESCASC
Precipitaciones de 18:00 a 24:00 en mm
DESCASC
03-05-2018 14.3 (15:30) 5.6 (00:00) 10 12.22 (17:20) 6.67 (19:30) 0 0 0 0 0
14-05-2018 16.8 (17:50) 2.4 (00:00) 9.6 11.94 (20:10) 5.28 (20:10) 0 0 0 0 0
13-05-2018 15.1 (18:40) 1 (00:00) 8.1 11.39 (18:40) 5.28 (18:40) 0 0 0 0 0
12-05-2018 22.9 (15:50) 5.8 (00:00) 14.3 11.67 (16:30) 5.83 (14:20) 0 0 0 0 0
11-05-2018 26.1 (15:50) 5.1 (05:50) 15.6 9.72 (12:30) 3.61 (16:30) 0 0 0 0 0
10-05-2018 19.3 (15:50) 8.8 (00:00) 14 9.17 (12:30) 4.72 (16:50) 0 0 0 0 0
09-05-2018 23.6 (17:20) 8 (00:00) 15.8 10.28 (22:40) 5.28 (22:40) 0 0 0 0 0
08-05-2018 22.3 (16:10) 7 (00:00) 14.6 11.11 (15:50) 5.56 (21:20) 0 0 0 0 0
22-04-2018 26 (16:20) 6.8 (00:00) 16.4 10.28 (16:40) 6.39 (17:30) 0 0 0 0 0
06-05-2018 22.7 (16:10) 5.7 (07:00) 14.2 7.78 (17:20) 5.56 (18:50) 0 0 0 0 0
05-05-2018 21 (15:40) 3.7 (00:00) 12.4 8.61 (19:20) 5.83 (19:20) 0 0 0 0 0
04-05-2018 17.5 (16:30) 3.4 (00:00) 10.5 11.11 (20:40) 6.11 (20:40) 0 0 0 0 0
02-05-2018 17.2 (18:30) -0.9 (-00:0) 8.2 10.56 (18:00) 5 (14:40) 0 0 0 0 0
01-05-2018 14.6 (16:30) 2 (01:10) 8.3 8.06 (17:30) 3.89 (19:30) 0 0 0 0 0
15-05-2018 17.7 (16:50) 5.7 (00:00) 11.7 9.72 (19:20) 5.83 (19:20) 0 0 0 0 0
29-04-2018 12.6 (16:20) 4.7 (00:00) 8.7 15.28 (14:30) 8.61 (13:20) 0 0 0 0 0
28-04-2018 22.5 (14:10) 4.9 (00:00) 13.7 12.22 (16:00) 6.67 (15:40) 0 0 0 0 0
27-04-2018 23.4 (14:00) 8.2 (00:00) 15.8 10 (18:10) 6.94 (18:00) 0 0 0 0 0
26-04-2018 25.3 (17:50) 7.1 (00:00) 16.2 6.39 (00:20) 4.17 (20:40) 0 0 0 0 0
25-04-2018 24.6 (16:30) 6.6 (00:00) 15.6 9.17 (14:30) 5 (20:50) 0 0 0 0 0
24-04-2018 26.2 (16:10) 5.6 (00:00) 15.9 9.72 (16:40) 5.56 (16:40) 0 0 0 0 0
16-05-2018 21.7 (14:50) 2.7 (00:00) 12.2 8.06 (18:00) 4.17 (18:00) 0 0 0 0 0
18-05-2018 18.7 (19:00) 10.1 (00:00) 14.4 8.61 (17:00) 6.39 (17:00) 0.2 0 0 0.2 0
23-04-2018 21.7 (16:40) 9.1 (06:50) 15.4 10.28 (17:50) 5.28 (17:30) 0.6 0 0.2 0.4 0
19-05-2018 20.2 (18:30) 7.1 (07:00) 13.7 11.39 (13:40) 7.22 (16:20) 0.6 0 0 0.6 0
30-04-2018 11.2 (14:20) 2.1 (00:00) 6.6 11.67 (17:10) 5 (17:20) 1.2 0 0 0.2 1
07-05-2018 21 (16:40) 7.8 (00:00) 14.4 10.83 (18:30) 7.78 (18:30) 1.6 0 0.2 0.6 0.8
21-05-2018 21.9 (15:20) 11.3 (00:00) 16.6 9.44 (17:40) 3.89 (17:40) 1.8 0.6 1 0.2 0
17-05-2018 23.3 (14:20) 4.9 (00:00) 14.1 9.72 (17:30) 6.67 (19:00) 4 0 0 0 4
20-05-2018 21.5 (15:10) 8.2 (00:00) 14.8 6.94 (17:00) 3.89 (17:00) 8 0 0 7.4 0.6

Gráficas

Temp. máximas Temp. mínimas Temp. medias Precipitaciones Rachas de viento máximas Velocidades máximas media en intervalos de 10 minutos

Datos horarios

Fecha y hora oficial Temperatura (ºC) Velocidad del viento (km/h) Dirección del viento Racha (km/h) Dirección de racha Precipitación (mm) Presión (hPa) Tendencia (hPa) Humedad (%)
2018-05-21 23:00:00 13.5 3 Sudoeste 11 Este 0 912.8 1.2 82
2018-05-21 22:00:00 13.5 7 Este 10 Este 0 912.2 0.2 83
2018-05-21 21:00:00 14.9 4 Sudeste 8 Sudeste 0 911.7 -0.1 74
2018-05-21 20:00:00 15.4 5 Sudeste 10 Sur 0 911.6 0.7 71
2018-05-21 19:00:00 15.2 3 Noroeste 17 Norte 0 912 1.5 72
2018-05-21 18:00:00 14.8 9 Nordeste 34 Nordeste 0 911.8 1.6 76
2018-05-21 17:00:00 16 2 Noroeste 21 Noroeste 0.2 910.9 -0.1 73
2018-05-21 16:00:00 17.4 11 Noroeste 32 Sur 0 910.5 -1.1 61
2018-05-21 15:00:00 21.4 8 Sudoeste 20 Sur 0 910.2 -2 44
2018-05-21 14:00:00 19 4 Sur 13 Este 0 911 -1.5 44
2018-05-21 13:00:00 15.8 7 Sudeste 10 Sudeste 0 911.6 -0.9 74
2018-05-21 12:00:00 13.7 3 Sudoeste 9 Sur 0.2 912.2 -0.2 81
2018-05-21 11:00:00 13.3 6 Sur 12 Sur 0.2 912.5 0.2 89
2018-05-21 10:00:00 12.7 5 Sur 11 Sur 0.4 912.5 0.5 90
2018-05-21 09:00:00 11.9 3 Sudoeste 5 Nordeste 0 912.4 0.4 95
2018-05-21 08:00:00 11.5 0 Calma 4 Noroeste 0.2 912.3 0.2 94
2018-05-21 07:00:00 11.4 4 Este 5 Sudeste 0 912 0 94
2018-05-21 06:00:00 11.4 2 Noroeste 9 Sudeste 0 912 -0.3 92
2018-05-21 05:00:00 11.6 5 Sur 8 Sudeste 0.2 912.1 -0.5 90
2018-05-21 04:00:00 11.8 5 Sudeste 11 Sur 0.2 912 -1.3 89
2018-05-21 03:00:00 11.8 6 Sur 13 Sur 0 912.3 -1.3 89
2018-05-21 02:00:00 12 6 Sur 12 Sudeste 0.2 912.6 -1.1 87
2018-05-21 01:00:00 12.2 5 Sudeste 17 Sudoeste 0 913.3 -0.2 87
2018-05-21 00:00:00 12.5 8 Sur 18 Sur 0 913.6 0.6 85
2018-05-20 23:00:00 12.9 9 Sudoeste 15 Sudoeste 0.2 913.7 0.9 86
2018-05-20 22:00:00 13 4 Sur 11 Sur 0.2 913.5 0.8 85
2018-05-20 21:00:00 14 3 Oeste 8 Sudeste 0 913 0.3 84
2018-05-20 20:00:00 13.4 2 Norte 11 Norte 0 912.8 0.5 83
2018-05-20 19:00:00 13.5 5 Norte 10 Noroeste 0.2 912.7 0.3 86
2018-05-20 18:00:00 13.5 5 Nordeste 23 Sur 7.4 912.7 -0.4 82
2018-05-20 17:00:00 18 14 Sudeste 25 Sudeste 0 912.3 -1.5 52
2018-05-20 16:00:00 20.5 5 Norte 14 Sudoeste 0 912.4 -2.3 37
2018-05-20 15:00:00 21.2 5 Noroeste 18 Sudeste 0 913.1 -1.9 38
2018-05-20 14:00:00 19.9 7 Sur 15 Sudeste 0 913.8 -1.3 45
2018-05-20 13:00:00 17.5 6 Sudeste 18 Este 0 914.7 -0.5 54
2018-05-20 12:00:00 16.7 8 Sur 15 Sudoeste 0 915 -0.5 63
2018-05-20 11:00:00 15.9 8 Este 16 Este 0 915.1 -0.4 62
2018-05-20 10:00:00 14.4 5 Sudeste 14 Sudeste 0 915.2 -0.1 68
2018-05-20 09:00:00 10.4 2 Noroeste 4 Noroeste 0 915.5 0.4 91
2018-05-20 08:00:00 8.8 0 Calma 3 Nordeste 0 915.5 0.5 95
2018-05-20 07:00:00 8.2 2 Nordeste 8 Sudeste 0 915.3 0.2 94
2018-05-20 06:00:00 9.1 0 Calma 5 Oeste 0 915.1 -0.6 92
2018-05-20 05:00:00 10 3 Noroeste 8 Norte 0 915 -1.2 91
2018-05-20 04:00:00 11.3 3 Nordeste 9 Nordeste 0 915.1 -1.1 87
2018-05-20 03:00:00 12.6 5 Sur 12 Este 0 915.7 -0.7 81
2018-05-20 02:00:00 12.9 3 Este 10 Este 0 916.2 0.1 82
2018-05-20 01:00:00 13.3 5 Norte 9 Noroeste 0 916.2 0.5 81
2018-05-20 00:00:00 13.7 3 Noroeste 9 Nordeste 0 916.4 1.4 76
2018-05-19 23:00:00 14.2 3 Noroeste 17 Nordeste 0 916.1 1.3 72
2018-05-19 22:00:00 14.6 7 Norte 21 Norte 0 915.7 0.6 68
2018-05-19 21:00:00 15.2 3 Noroeste 26 Nordeste 0 915 0 63
2018-05-19 20:00:00 15.9 12 Nordeste 23 Nordeste 0 914.8 -0.5 61
2018-05-19 19:00:00 18.4 12 Norte 24 Nordeste 0 915.1 -0.8 49
2018-05-19 18:00:00 19.5 5 Norte 23 Este 0 915 -1.1 37
2018-05-19 17:00:00 18.7 19 Este 36 Este 0 915.3 -1.2 46
2018-05-19 16:00:00 17.6 24 Este 35 Nordeste 0 915.9 -0.9 54
2018-05-19 15:00:00 17.7 9 Nordeste 14 Este 0.2 916.1 -0.9 58
2018-05-19 14:00:00 14.7 10 Norte 41 Este 0.4 916.5 -0.6 73
2018-05-19 13:00:00 17.1 17 Este 27 Este 0 916.8 -0.6 61
2018-05-19 12:00:00 18.8 4 Noroeste 12 Norte 0 917 -0.2 58
2018-05-19 11:00:00 16.8 3 Oeste 8 Noroeste 0 917.1 -0.1 66
2018-05-19 10:00:00 14.3 3 Noroeste 6 Noroeste 0 917.4 0.6 77
2018-05-19 09:00:00 11.4 3 Oeste 5 Oeste 0 917.2 0.7 83
2018-05-19 08:00:00 8.9 0 Calma 4 Nordeste 0 917.2 0.7 92
2018-05-19 07:00:00 7.1 0 Calma 7 Sur 0 916.8 0.4 94
2018-05-19 06:00:00 7.4 3 Sur 5 Sudeste 0 916.5 -0.1 93
2018-05-19 05:00:00 8 0 Calma 6 Sudeste 0 916.5 -0.2 92
2018-05-19 04:00:00 8.7 3 Sudoeste 5 Norte 0 916.4 -0.6 92
2018-05-19 03:00:00 9.7 4 Sur 8 Sudeste 0 916.6 -0.4 90
2018-05-19 02:00:00 10.3 2 Norte 4 Sudeste 0 916.7 -0.3 91
2018-05-19 01:00:00 11.3 2 Este 3 Este 0 917 0.7 88
2018-05-19 00:00:00 12.3 2 Norte 8 Norte 0 917 1.2 82
2018-05-18 23:00:00 12.9 3 Nordeste 10 Norte 0 917 1.4 81
2018-05-18 22:00:00 14.2 4 Sudeste 9 Este 0 916.3 0.7 77
2018-05-18 21:00:00 16.2 0 Calma 4 Este 0 915.8 0.2 67
2018-05-18 20:00:00 17.4 0 Calma 13 Sur 0 915.6 -0.3 58
2018-05-18 19:00:00 18.7 6 Sur 16 Sudeste 0 915.6 -0.3 52
2018-05-18 18:00:00 17.5 8 Sur 28 Este 0 915.6 -0.8 56
2018-05-18 17:00:00 15.4 23 Este 31 Este 0 915.9 -0.8 70
2018-05-18 16:00:00 17.5 8 Sur 18 Sudeste 0 915.9 -0.9 56
2018-05-18 15:00:00 14.6 12 Este 20 Nordeste 0.2 916.4 -0.4 77
2018-05-18 14:00:00 13.5 17 Nordeste 26 Nordeste 0 916.7 -0.1 79
2018-05-18 13:00:00 16.8 6 Norte 17 Oeste 0 916.8 0.1 63
2018-05-18 12:00:00 16.5 6 Oeste 19 Oeste 0 916.8 0.3 68
2018-05-18 11:00:00 14.1 3 Oeste 6 Oeste 0 916.8 0.6 79
2018-05-18 10:00:00 12.2 2 Norte 7 Norte 0 916.7 1 85
2018-05-18 09:00:00 11.3 3 Norte 6 Noroeste 0 916.5 1 90
2018-05-18 08:00:00 10.7 3 Norte 8 Noroeste 0 916.2 0.5 91
2018-05-18 07:00:00 10.2 4 Noroeste 11 Este 0 915.7 -0.1 90
2018-05-18 06:00:00 10.4 2 Nordeste 5 Oeste 0 915.5 -0.5 94
2018-05-18 05:00:00 10.5 4 Nordeste 7 Sudeste 0 915.7 -0.5 92
2018-05-18 04:00:00 10.4 0 Calma 6 Sur 0 915.8 -0.7 93
2018-05-18 03:00:00 11.1 2 Sudeste 4 Este 0 916 -0.3 92
2018-05-18 02:00:00 12.2 4 Sur 12 Sur 0 916.2 -0.2 87
2018-05-18 01:00:00 12.5 5 Sudeste 14 Sudeste 0 916.5 0.9 88
2018-05-18 00:00:00 12.8 7 Sudeste 11 Sudeste 0.2 916.3 1.9 89
2018-05-17 23:00:00 13 3 Noroeste 18 Noroeste 3.6 916.4 2.9 87
2018-05-17 22:00:00 15 6 Noroeste 22 Oeste 0.2 915.6 2.6 71
2018-05-17 21:00:00 17.6 8 Sur 27 Sudeste 0 914.4 1.2 45
2018-05-17 20:00:00 19.3 18 Sudeste 29 Sudeste 0 913.5 0.7 40
2018-05-17 19:00:00 20.6 24 Este 35 Este 0 913 -0.3 37
2018-05-17 18:00:00 19.9 20 Sudeste 35 Sudeste 0 913.2 -0.5 40
2018-05-17 17:00:00 22.3 6 Nordeste 24 Nordeste 0 912.8 -1.2 33
2018-05-17 16:00:00 22.6 6 Norte 28 Nordeste 0 913.3 -1.4 32
2018-05-17 15:00:00 22 12 Nordeste 26 Nordeste 0 913.7 -1.3 36
2018-05-17 14:00:00 22.6 7 Noroeste 17 Norte 0 914 -1.2 29
2018-05-17 13:00:00 21.1 9 Sudeste 18 Este 0 914.7 -0.9 31
2018-05-17 12:00:00 19.4 5 Norte 12 Norte 0 915 -0.6 36
2018-05-17 11:00:00 17.6 6 Sudeste 12 Sudeste 0 915.2 -0.5 44
2018-05-17 10:00:00 14.2 4 Sudeste 8 Sudeste 0 915.6 0.1 54
2018-05-17 09:00:00 11.5 3 Sudeste 5 Sudeste 0 915.6 0 67
2018-05-17 08:00:00 7.2 0 Calma 3 Oeste 0 915.7 0.2 80
2018-05-17 07:00:00 5 0 Calma 4 Nordeste 0 915.5 0.1 89
2018-05-17 06:00:00 6 3 Sur 8 Sur 0 915.6 0.1 85
2018-05-17 05:00:00 6.4 0 Calma 4 Oeste 0 915.5 -0.3 88
2018-05-17 04:00:00 7.1 0 Calma 4 Norte 0 915.4 -0.5 86
2018-05-17 03:00:00 8.3 0 Calma 3 Nordeste 0 915.5 -0.4 80
2018-05-17 02:00:00 9.3 0 Calma 7 Norte 0 915.8 0.2 78
2018-05-17 01:00:00 10.8 3 Norte 8 Norte 0 915.9 1 77
2018-05-17 00:00:00 12.1 5 Norte 8 Norte 0 915.9 1.3 72
2018-05-16 23:00:00 14.2 3 Sur 8 Nordeste 0 915.6 1.6 58
2018-05-16 22:00:00 16.1 6 Nordeste 20 Nordeste 0 914.9 0.9 50
2018-05-16 21:00:00 18.4 15 Nordeste 24 Nordeste 0 914.6 0.4 43
2018-05-16 20:00:00 19.5 13 Nordeste 22 Este 0 914 -0.3 40
2018-05-16 19:00:00 20.4 12 Nordeste 27 Nordeste 0 914 -0.9 38
2018-05-16 18:00:00 20.8 15 Nordeste 29 Nordeste 0 914.2 -1 38
2018-05-16 17:00:00 21.1 11 Nordeste 23 Este 0 914.3 -1.2 36
2018-05-16 16:00:00 20 12 Este 23 Nordeste 0 914.9 -1.3 40
2018-05-16 15:00:00 21.2 8 Nordeste 22 Norte 0 915.2 -1.5 36
2018-05-16 14:00:00 21.1 8 Norte 17 Norte 0 915.5 -1.3 38
2018-05-16 13:00:00 18.8 5 Nordeste 15 Nordeste 0 916.2 -0.8 40
2018-05-16 12:00:00 16.8 5 Noroeste 13 Noroeste 0 916.7 -0.5 45
2018-05-16 11:00:00 14.2 4 Nordeste 9 Norte 0 916.8 -0.6 51
2018-05-16 10:00:00 11.7 3 Oeste 7 Oeste 0 917 -0.1 60
2018-05-16 09:00:00 8.2 3 Sudoeste 4 Sudoeste 0 917.2 0.3 74
2018-05-16 08:00:00 4.7 0 Calma 4 Nordeste 0 917.4 0.3 85
2018-05-16 07:00:00 2.9 2 Oeste 4 Oeste 0 917.1 -0.3 91
2018-05-16 06:00:00 3.3 0 Calma 7 Sur 0 916.9 -0.7 88
2018-05-16 05:00:00 4 0 Calma 5 Oeste 0 917.1 -0.7 89
2018-05-16 04:00:00 4.7 3 Oeste 8 Este 0 917.4 -0.5 87
2018-05-16 03:00:00 5.4 3 Sudeste 5 Sudeste 0 917.6 -0.2 85
2018-05-16 02:00:00 6.2 2 Oeste 7 Sudoeste 0 917.8 0.2 85
2018-05-16 01:00:00 7.5 0 Calma 7 Sudoeste 0 917.9 0.9 81
2018-05-16 00:00:00 8.7 3 Oeste 10 Norte 0 917.8 1.3 77
2018-05-15 23:00:00 9.7 5 Norte 16 Norte 0 917.6 1.5 74
2018-05-15 22:00:00 10.9 6 Norte 21 Nordeste 0 917 1.2 68
2018-05-15 21:00:00 12.4 14 Norte 29 Nordeste 0 916.5 0.6 63
2018-05-15 20:00:00 14.4 14 Norte 35 Nordeste 0 916.1 0.1 56
2018-05-15 19:00:00 16.1 16 Norte 33 Norte 0 915.8 -0.8 50
2018-05-15 18:00:00 17 13 Norte 33 Norte 0 915.9 -1.1 46
2018-05-15 17:00:00 17.2 14 Norte 30 Norte 0 916 -1.5 44
2018-05-15 16:00:00 17 10 Norte 30 Norte 0 916.6 -1.3 44
2018-05-15 15:00:00 16.2 13 Norte 31 Norte 0 917 -1.1 46
2018-05-15 14:00:00 15.1 11 Norte 27 Norte 0 917.5 -0.8 47
2018-05-15 13:00:00 13.6 10 Norte 30 Norte 0 917.9 -0.6 49
2018-05-15 12:00:00 12.3 10 Norte 29 Nordeste 0 918.1 -0.3 53
2018-05-15 11:00:00 10.1 6 Noroeste 25 Norte 0 918.3 -0.2 60
2018-05-15 10:00:00 8.5 14 Norte 34 Nordeste 0 918.5 0.2 64
2018-05-15 09:00:00 7.5 7 Norte 15 Noroeste 0 918.4 0.4 67
2018-05-15 08:00:00 6.8 4 Norte 13 Norte 0 918.5 0.3 68
2018-05-15 07:00:00 6.6 4 Noroeste 16 Nordeste 0 918.3 -0.1 70
2018-05-15 06:00:00 6.4 8 Norte 21 Nordeste 0 918 -0.4 70
2018-05-15 05:00:00 5.9 7 Norte 21 Norte 0 918.2 -0.4 71
2018-05-15 04:00:00 5.9 4 Norte 18 Norte 0 918.4 -0.4 70
2018-05-15 03:00:00 6.2 9 Norte 29 Norte 0 918.4 -0.6 67
2018-05-15 02:00:00 6.6 10 Norte 26 Norte 0 918.6 -0.3 65
2018-05-15 01:00:00 7.2 9 Norte 33 Norte 0 918.8 0.6 61
2018-05-15 00:00:00 7.7 7 Norte 30 Noroeste 0 919 1.9 65
2018-05-14 23:00:00 8 10 Norte 24 Nordeste 0 918.9 2.4 65
2018-05-14 22:00:00 8.3 10 Norte 32 Norte 0 918.2 2.4 66
2018-05-14 21:00:00 11 12 Norte 43 Norte 0 917.1 1.6 50
2018-05-14 20:00:00 13.2 17 Norte 34 Norte 0 916.5 0.7 39
2018-05-14 19:00:00 15.7 15 Noroeste 41 Noroeste 0 915.8 -0.2 31
2018-05-14 18:00:00 16.5 14 Norte 33 Norte 0 915.5 -1.1 31
2018-05-14 17:00:00 16.1 15 Norte 34 Noroeste 0 915.8 -0.9 32
2018-05-14 16:00:00 16.3 13 Noroeste 33 Noroeste 0 916 -0.8 29
2018-05-14 15:00:00 16.1 13 Norte 37 Nordeste 0 916.6 -0.3 36
2018-05-14 14:00:00 14.5 15 Norte 38 Norte 0 916.7 -0.2 40
2018-05-14 13:00:00 13.3 11 Norte 26 Norte 0 916.8 0 44
2018-05-14 12:00:00 11.9 9 Norte 24 Norte 0 916.9 -0.4 52
2018-05-14 11:00:00 11.1 10 Norte 27 Noroeste 0 916.9 -0.3 53
2018-05-14 10:00:00 10.2 10 Norte 21 Noroeste 0 916.8 -0.5 59
2018-05-14 09:00:00 8.9 3 Noroeste 8 Nordeste 0 917.3 0 63
2018-05-14 08:00:00 5.1 6 Sudoeste 14 Sudoeste 0 917.2 -0.1 77
2018-05-14 07:00:00 2.4 2 Sudoeste 5 Oeste 0 917.3 0 85
2018-05-14 06:00:00 2.9 3 Sudoeste 4 Sudoeste 0 917.3 -0.4 84
2018-05-14 05:00:00 4 0 Calma 5 Noroeste 0 917.3 -0.9 80
2018-05-14 04:00:00 5.3 2 Oeste 9 Norte 0 917.3 -0.9 75
2018-05-14 03:00:00 6.8 4 Norte 12 Norte 0 917.7 -0.6 68
2018-05-14 02:00:00 7.5 4 Norte 12 Norte 0 918.2 -0.1 64
2018-05-14 01:00:00 7.7 4 Norte 12 Norte 0 918.2 0.3 64
2018-05-11 20:00:00 23.6 10 Oeste 22 Oeste 0 914.1 -0.3 30
2018-05-11 19:00:00 24.2 9 Oeste 26 Oeste 0 914 -0.7 29
2018-05-11 18:00:00 25 9 Oeste 26 Noroeste 0 914.3 -0.7 27
2018-05-11 17:00:00 25.3 13 Oeste 28 Sudoeste 0 914.4 -1 27
2018-05-11 16:00:00 25.6 12 Oeste 28 Noroeste 0 914.7 -1.2 27
2018-05-11 15:00:00 25 9 Oeste 25 Oeste 0 915 -1.4 26
2018-05-11 14:00:00 24.1 13 Oeste 26 Oeste 0 915.4 -1.1 29
2018-05-11 13:00:00 22.2 7 Noroeste 35 Oeste 0 915.9 -0.8 39
2018-05-11 12:00:00 21.4 8 Sur 19 Sudoeste 0 916.4 -0.5 47
2018-05-11 11:00:00 18.4 8 Sur 15 Sudoeste 0 916.5 -0.2 54
2018-05-11 10:00:00 14.9 3 Sur 11 Sur 0 916.7 0.4 66
2018-05-11 09:00:00 12.6 5 Sur 9 Sudoeste 0 916.9 0.6 75
2018-05-11 08:00:00 9.3 6 Sudeste 9 Sudeste 0 916.7 0.7 86
2018-05-11 07:00:00 7 8 Sudeste 11 Sudeste 0 916.3 0 94
2018-05-11 06:00:00 5.2 4 Sudeste 7 Sudeste 0 916.3 -0.5 89
2018-05-11 05:00:00 5.3 2 Sudeste 5 Sur 0 916 -1.1 86
2018-05-11 04:00:00 6 2 Sur 7 Sur 0 916.3 -0.8 83
2018-05-11 03:00:00 6.3 2 Noroeste 5 Sur 0 916.8 -0.4 84
2018-05-11 02:00:00 7.3 3 Sudoeste 6 Sur 0 917.1 -0.2 80
2018-05-11 01:00:00 7.8 3 Oeste 5 Norte 0 917.1 0.4 79
2018-05-11 00:00:00 8.8 2 Oeste 5 Norte 0 917.2 0.9 75
2018-05-10 23:00:00 10.4 2 Noroeste 9 Noroeste 0 917.3 1.6 67
2018-05-10 22:00:00 11.9 4 Norte 14 Nordeste 0 916.7 1.6 62
2018-05-10 21:00:00 13.4 12 Norte 27 Nordeste 0 916.3 1.5 56
2018-05-10 20:00:00 15.7 13 Norte 29 Norte 0 915.7 0.8 49
2018-05-10 19:00:00 17.5 14 Norte 27 Nordeste 0 915.1 0 44
2018-05-10 18:00:00 18.5 11 Norte 28 Norte 0 914.8 -0.7 40
2018-05-10 17:00:00 18.5 13 Nordeste 31 Nordeste 0 914.9 -0.5 40
2018-05-10 16:00:00 18.9 14 Nordeste 33 Nordeste 0 915.1 -0.6 37
2018-05-10 15:00:00 18.6 9 Norte 30 Nordeste 0 915.5 -0.3 39
2018-05-10 14:00:00 17.9 9 Norte 25 Norte 0 915.4 -0.4 40
2018-05-10 13:00:00 16.5 11 Norte 33 Norte 0 915.7 0.1 39
2018-05-10 12:00:00 14 8 Norte 18 Norte 0 915.8 0.5 55
2018-05-10 11:00:00 12.6 6 Norte 19 Norte 0 915.8 1 59
2018-05-10 10:00:00 11.1 8 Norte 20 Norte 0 915.6 1.4 63
2018-05-10 09:00:00 10.1 10 Norte 20 Nordeste 0 915.3 1.5 73
2018-05-10 08:00:00 9.7 8 Norte 20 Nordeste 0 914.8 1.5 73
2018-05-10 07:00:00 9.3 5 Norte 12 Nordeste 0 914.2 1.1 80
2018-05-10 06:00:00 9.2 6 Norte 24 Norte 0 913.8 1.2 79
2018-05-10 05:00:00 9.6 11 Norte 22 Norte 0 913.3 0.6 74
2018-05-10 04:00:00 10.3 11 Norte 26 Norte 0 913.1 0.3 74
2018-05-10 03:00:00 10.7 7 Norte 16 Norte 0 912.6 -0.2 72
2018-05-10 02:00:00 10.6 9 Norte 18 Norte 0 912.7 0.6 71
2018-05-10 01:00:00 11 3 Norte 18 Norte 0 912.8 1.7 69
2018-05-10 00:00:00 11.7 7 Norte 32 Norte 0 912.8 3 70
2018-05-09 23:00:00 12.5 19 Norte 37 Norte 0 912.1 3.1 72
2018-05-09 22:00:00 13.7 17 Norte 33 Nordeste 0 911.1 2.5 67
2018-05-09 21:00:00 16.2 12 Norte 28 Norte 0 909.8 1.1 59
2018-05-09 20:00:00 19.6 16 Norte 29 Nordeste 0 909 0.1 46
2018-05-09 19:00:00 21.6 13 Nordeste 25 Norte 0 908.6 -0.7 39
2018-05-09 18:00:00 23.2 8 Norte 25 Nordeste 0 908.7 -1.2 32
2018-05-09 17:00:00 23.3 9 Norte 22 Norte 0 908.9 -1.3 30
2018-05-09 16:00:00 22.6 12 Norte 24 Norte 0 909.3 -1.4 28
2018-05-09 15:00:00 22 9 Norte 24 Norte 0 909.9 -1.4 27
2018-05-09 14:00:00 21.1 7 Noroeste 20 Norte 0 910.2 -1.4 40
2018-05-09 13:00:00 19.4 5 Este 14 Nordeste 0 910.7 -1.2 48
2018-05-09 12:00:00 16.7 6 Nordeste 13 Sudoeste 0 911.3 -0.7 58
2018-05-09 11:00:00 15.1 7 Sur 17 Sudoeste 0 911.6 -0.5 67
2018-05-09 10:00:00 13.7 7 Sur 14 Sur 0 911.9 0.4 72
2018-05-09 09:00:00 10.9 3 Noroeste 13 Noroeste 0 912 0.7 86
2018-05-09 08:00:00 9.6 3 Noroeste 7 Noroeste 0 912.1 0.5 91
2018-05-09 07:00:00 9.2 3 Norte 5 Norte 0 911.5 -0.4 91
2018-05-09 06:00:00 9.4 4 Norte 7 Nordeste 0 911.3 -0.9 91
2018-05-09 05:00:00 9.2 3 Nordeste 5 Norte 0 911.6 -1 91
2018-05-09 04:00:00 8.5 2 Este 12 Sur 0 911.9 -1.1 90
2018-05-09 03:00:00 8.4 2 Sudeste 4 Sur 0 912.2 -1.1 88
2018-05-09 02:00:00 9.5 3 Sudeste 5 Este 0 912.6 -0.4 87
2018-05-09 01:00:00 11 3 Oeste 15 Nordeste 0 913 0.6 85
2018-05-09 00:00:00 12.3 6 Norte 29 Nordeste 0 913.3 1.5 80
2018-05-08 23:00:00 13.1 11 Norte 25 Norte 0 913 1.8 77
2018-05-08 22:00:00 14.4 12 Norte 32 Nordeste 0 912.4 1.4 74
2018-05-08 21:00:00 16.3 19 Norte 32 Norte 0 911.8 1 67
2018-05-08 20:00:00 18.9 14 Norte 32 Nordeste 0 911.2 0.1 55
2018-05-08 19:00:00 20.7 14 Norte 32 Norte 0 911 -0.2 45
2018-05-08 18:00:00 21.4 14 Norte 36 Nordeste 0 910.8 -0.9 44
2018-05-08 17:00:00 21.7 19 Nordeste 35 Norte 0 911.1 -1 41
2018-05-08 16:00:00 22.1 13 Norte 40 Norte 0 911.2 -1.3 39
2018-05-08 15:00:00 20.3 15 Norte 37 Norte 0 911.7 -1.4 45
2018-05-08 14:00:00 19.9 9 Norte 25 Noroeste 0 912.1 -1.3 48
2018-05-08 13:00:00 20 9 Noroeste 22 Noroeste 0 912.5 -1 56
2018-05-08 12:00:00 16.9 7 Norte 15 Norte 0 913.1 -0.2 71
2018-05-08 11:00:00 13.9 3 Oeste 5 Nordeste 0 913.4 0.4 81
2018-05-08 10:00:00 11.8 2 Sudeste 6 Sur 0 913.5 0.6 88
2018-05-08 09:00:00 9 2 Oeste 4 Sur 0 913.3 0.4 93
2018-05-08 08:00:00 7.2 0 Calma 6 Sur 0 913 -0.3 95
2018-05-08 07:00:00 7.1 3 Sur 5 Sudoeste 0 912.9 -0.5 95
2018-05-08 06:00:00 7.2 2 Sudeste 3 Norte 0 912.9 -0.7 95
2018-05-08 05:00:00 7.8 3 Oeste 6 Sur 0 913.3 -0.6 94
2018-05-08 04:00:00 8.1 2 Sudoeste 5 Sudoeste 0 913.4 -1 95
2018-05-08 03:00:00 8.3 3 Oeste 9 Este 0 913.6 -0.9 93
2018-05-08 02:00:00 9.2 0 Calma 12 Sur 0 913.9 -0.8 91
2018-05-08 01:00:00 9.9 3 Sur 8 Sur 0 914.4 0.1 89
2018-05-08 00:00:00 10.8 2 Sudoeste 6 Sudoeste 0 914.5 0.1 92
2018-05-07 23:00:00 11.6 2 Norte 4 Sudeste 0 914.7 1 88
2018-05-07 22:00:00 13.2 2 Sudoeste 13 Sudeste 0 914.3 0.6 84
2018-05-07 21:00:00 14.8 7 Sur 19 Sudoeste 0 914.4 1.1 76
2018-05-07 20:00:00 16.6 3 Oeste 9 Norte 0 913.7 0.1 79
2018-05-07 19:00:00 15.1 6 Norte 39 Este 0.8 913.7 -0.5 85
2018-05-07 18:00:00 20 6 Este 22 Este 0 913.3 -2.2 49
2018-05-07 17:00:00 20.5 10 Nordeste 26 Este 0 913.6 -2.3 49
2018-05-07 16:00:00 19.9 11 Este 21 Este 0 914.2 -2.3 51
2018-05-07 15:00:00 17.1 16 Este 23 Este 0 915.5 -1.2 70
2018-05-07 14:00:00 16.8 3 Noroeste 10 Norte 0 915.9 -0.8 73
2018-05-07 13:00:00 14.6 3 Noroeste 7 Noroeste 0.6 916.5 -0.2 83
2018-05-07 12:00:00 13.4 0 Calma 4 Norte 0 916.7 0.1 80
2018-05-07 11:00:00 12.1 2 Noroeste 6 Noroeste 0 916.7 0.3 82
2018-05-07 10:00:00 10.8 2 Norte 4 Norte 0.2 916.7 0.7 88
2018-05-07 09:00:00 9.6 2 Oeste 5 Noroeste 0 916.6 0.6 84
2018-05-07 08:00:00 8.8 0 Calma 6 Sur 0 916.4 0.4 86
2018-05-07 07:00:00 8.6 4 Sur 11 Sur 0 916 -0.3 87
2018-05-07 06:00:00 8.3 4 Sur 9 Sudoeste 0 916 -0.6 89
2018-05-07 05:00:00 8.3 7 Sudeste 12 Sudeste 0 916 -0.8 86
2018-05-07 04:00:00 8.5 10 Sudeste 13 Sudeste 0 916.3 -0.5 88
2018-05-07 03:00:00 8.7 0 Calma 4 Nordeste 0 916.6 -0.4 86
2018-05-07 02:00:00 9.6 2 Noroeste 12 Sudeste 0 916.8 -0.2 83
2018-05-07 01:00:00 10.3 4 Sudeste 8 Sudeste 0 916.8 0.3 82
2018-05-07 00:00:00 11.6 6 Sudeste 7 Sudeste 0 917 1.2 78
2018-05-06 23:00:00 13 3 Sudeste 7 Sudoeste 0 917 1.7 75
2018-05-06 22:00:00 15.1 6 Sudeste 19 Sudoeste 0 916.5 1.6 67
2018-05-06 21:00:00 17.5 7 Sudeste 21 Este 0 915.8 1.1 51
2018-05-06 20:00:00 18.5 14 Este 24 Este 0 915.3 0.6 44
2018-05-06 19:00:00 19.7 19 Este 28 Este 0 914.9 -0.2 39
2018-05-06 18:00:00 21 14 Este 28 Este 0 914.7 -1.1 37
2018-05-06 17:00:00 21.4 16 Este 25 Nordeste 0 914.7 -1.7 35
2018-05-06 16:00:00 21.7 8 Nordeste 23 Este 0 915.1 -1.9 33
2018-05-06 15:00:00 21.2 14 Nordeste 28 Este 0 915.8 -1.7 37
2018-05-06 14:00:00 21.2 11 Este 21 Sudeste 0 916.4 -1.3 38
2018-05-06 13:00:00 19.6 8 Este 17 Nordeste 0 917 -0.9 44
2018-05-06 12:00:00 18.2 4 Oeste 10 Sudoeste 0 917.5 -0.7 48
2018-05-06 11:00:00 16.6 4 Sur 7 Sur 0 917.7 -0.3 59
2018-05-06 10:00:00 13.1 3 Sudeste 7 Este 0 917.9 0.4 70
2018-05-06 09:00:00 10.4 2 Sur 6 Sudoeste 0 918.2 0.9 79
2018-05-06 08:00:00 6.7 3 Sur 6 Sur 0 918 0.8 89
2018-05-06 07:00:00 5.7 3 Sudeste 5 Sudeste 0 917.5 0.5 90
2018-05-06 06:00:00 6.5 2 Este 4 Oeste 0 917.3 0.1 88
2018-05-06 05:00:00 7.5 0 Calma 10 Este 0 917.2 -0.3 87
2018-05-06 04:00:00 8.9 3 Sudoeste 5 Nordeste 0 917 -0.6 83
2018-05-06 03:00:00 10.5 4 Este 8 Sur 0 917.2 -0.3 79
2018-05-06 02:00:00 12.2 8 Este 13 Este 0 917.5 0.3 76
2018-05-06 01:00:00 13.1 5 Este 8 Sudeste 0 917.6 0.9 70
2018-05-06 00:00:00 14.1 7 Nordeste 12 Este 0 917.5 1.5 65
2018-05-05 23:00:00 14.8 4 Este 10 Este 0 917.2 2 63
2018-05-05 22:00:00 15.9 2 Noroeste 12 Sudeste 0 916.7 2.1 57
2018-05-05 21:00:00 17 8 Este 24 Este 0 916 1.4 49
2018-05-05 20:00:00 18 17 Este 31 Sudeste 0 915.2 0.8 44
2018-05-05 19:00:00 19.9 13 Este 26 Nordeste 0 914.6 0.2 39
2018-05-05 18:00:00 19.4 12 Nordeste 29 Nordeste 0 914.6 0 40
2018-05-05 17:00:00 20.4 12 Nordeste 28 Nordeste 0 914.4 -0.4 37
2018-05-05 16:00:00 19.9 9 Nordeste 29 Norte 0 914.4 -0.9 37
2018-05-05 15:00:00 20 10 Norte 26 Norte 0 914.6 -1.1 38
2018-05-05 14:00:00 20 8 Noroeste 19 Norte 0 914.8 -1.2 40
2018-05-05 13:00:00 18.1 6 Norte 16 Noroeste 0 915.3 -0.7 45
2018-05-05 12:00:00 16.2 6 Noroeste 14 Noroeste 0 915.7 -0.4 48
2018-05-05 11:00:00 13.5 5 Noroeste 15 Noroeste 0 916 0 55
2018-05-05 10:00:00 10.8 3 Nordeste 6 Este 0 916 0.5 64
2018-05-05 09:00:00 8.2 3 Sudoeste 5 Sudoeste 0 916.1 0.8 73
2018-05-05 08:00:00 5 0 Calma 3 Noroeste 0 916 0.6 84
2018-05-05 07:00:00 4 4 Sudeste 4 Sudeste 0 915.5 0 87
2018-05-05 06:00:00 4.3 0 Calma 5 Sudeste 0 915.3 -0.2 86
2018-05-05 05:00:00 3.8 0 Calma 4 Sudoeste 0 915.4 -0.6 87
2018-05-05 04:00:00 4.7 0 Calma 5 Sudeste 0 915.5 -0.7 83
2018-05-05 03:00:00 5.7 2 Oeste 8 Noroeste 0 915.5 -0.5 80
2018-05-05 02:00:00 6.7 3 Noroeste 11 Noroeste 0 916 0.1 76
2018-05-05 01:00:00 7.3 4 Noroeste 10 Norte 0 916.2 1.2 75
2018-05-05 00:00:00 7.9 5 Norte 15 Noroeste 0 916 2 72
2018-05-04 23:00:00 8.6 8 Norte 30 Nordeste 0 915.9 2.6 69
2018-05-04 22:00:00 9.4 15 Norte 40 Norte 0 915 2.2 66
2018-05-04 21:00:00 11.1 15 Nordeste 40 Nordeste 0 914 1.4 60
2018-05-04 20:00:00 13.2 18 Nordeste 37 Norte 0 913.3 1 52
2018-05-04 19:00:00 15.7 17 Nordeste 33 Nordeste 0 912.8 0.5 44
2018-05-04 18:00:00 16.8 15 Norte 32 Nordeste 0 912.6 0 42
2018-05-04 17:00:00 17.2 15 Norte 32 Nordeste 0 912.3 -0.6 41
2018-05-04 16:00:00 17.2 11 Norte 30 Nordeste 0 912.3 -0.8 41
2018-05-04 15:00:00 16.6 12 Norte 32 Norte 0 912.6 -0.8 42
2018-05-04 14:00:00 15.5 10 Norte 26 Noroeste 0 912.9 -0.7 42
2018-05-04 13:00:00 14.1 12 Noroeste 27 Norte 0 913.1 -0.8 45
2018-05-04 12:00:00 12.7 11 Norte 32 Norte 0 913.4 -0.4 50
2018-05-04 11:00:00 11.2 10 Norte 30 Nordeste 0 913.6 0 54
2018-05-04 10:00:00 8.5 7 Noroeste 18 Noroeste 0 913.9 0.2 65
2018-05-04 09:00:00 6.4 4 Norte 13 Norte 0 913.8 0.2 73
2018-05-04 08:00:00 5.3 6 Noroeste 15 Noroeste 0 913.6 -0.2 75
2018-05-04 07:00:00 5.1 5 Noroeste 23 Noroeste 0 913.7 -0.2 75
2018-05-04 06:00:00 4.7 9 Norte 24 Norte 0 913.6 -0.6 76
2018-05-04 05:00:00 4.2 4 Noroeste 11 Norte 0 913.8 -0.7 78
2018-05-04 04:00:00 4 4 Norte 9 Norte 0 913.9 -1 79
2018-05-04 03:00:00 3.5 3 Noroeste 8 Norte 0 914.2 -0.4 78
2018-05-04 02:00:00 4.2 3 Noroeste 15 Norte 0 914.5 0 74
2018-05-04 01:00:00 4.8 3 Norte 16 Norte 0 914.9 0.8 73
2018-05-04 00:00:00 5.6 8 Norte 29 Norte 0 914.6 1.4 69
2018-05-03 23:00:00 6.2 16 Norte 34 Norte 0 914.5 1.6 69
2018-05-03 22:00:00 7.4 16 Norte 35 Norte 0 914.1 1.8 63
2018-05-03 21:00:00 8.8 15 Norte 37 Nordeste 0 913.2 1.4 60
2018-05-03 20:00:00 10.3 23 Norte 42 Norte 0 912.9 0.9 56
2018-05-03 19:00:00 12.3 15 Norte 37 Nordeste 0 912.3 -0.2 50
2018-05-03 18:00:00 13.1 18 Norte 44 Nordeste 0 911.8 -1.1 45
2018-05-03 17:00:00 12.9 18 Norte 36 Nordeste 0 912 -1.2 48
2018-05-03 16:00:00 14.3 13 Noroeste 37 Norte 0 912.5 -0.7 43
2018-05-03 15:00:00 12.7 17 Norte 37 Norte 0 912.9 -0.4 45
2018-05-03 14:00:00 13.4 14 Norte 41 Nordeste 0 913.2 -0.3 42
2018-05-03 13:00:00 13.2 13 Norte 30 Norte 0 913.2 -0.1 37
2018-05-03 12:00:00 12.7 11 Norte 31 Norte 0 913.3 0.1 46
2018-05-03 11:00:00 11 14 Norte 35 Norte 0 913.5 0.5 48
2018-05-03 10:00:00 10.3 13 Norte 31 Noroeste 0 913.3 0.4 58
2018-05-03 09:00:00 8.7 9 Noroeste 35 Norte 0 913.2 0.2 69
2018-05-03 08:00:00 9.4 12 Norte 28 Norte 0 913 -0.1 73
2018-05-03 07:00:00 6.4 4 Noroeste 18 Noroeste 0 912.9 -0.3 90
2018-05-03 06:00:00 7.1 0 Calma 5 Este 0 913 -0.3 87
2018-05-03 05:00:00 7.1 3 Noroeste 5 Oeste 0 913.1 -0.6 88
2018-05-03 04:00:00 7.1 4 Nordeste 6 Este 0 913.2 -0.6 85
2018-05-03 03:00:00 8 3 Norte 9 Nordeste 0 913.3 -0.4 83
2018-05-03 02:00:00 8.1 3 Sudeste 7 Sudeste 0 913.7 0.1 82
2018-05-03 01:00:00 8.2 2 Sur 3 Sudoeste 0 913.8 0.8 79
2018-05-03 00:00:00 8.4 0 Calma 6 Norte 0 913.7 1.4 77
2018-05-02 23:00:00 9.6 3 Noroeste 18 Norte 0 913.6 2 71
2018-05-02 22:00:00 10.4 9 Norte 26 Norte 0 913 1.6 66
2018-05-02 21:00:00 12.1 11 Norte 31 Nordeste 0 912.3 0.9 55
2018-05-02 20:00:00 15.1 9 Norte 25 Noroeste 0 911.6 0.5 36
2018-05-02 19:00:00 16.1 12 Noroeste 31 Norte 0 911.4 -0.1 31
2018-05-02 18:00:00 16.4 13 Noroeste 38 Noroeste 0 911.4 -0.3 29
2018-05-02 17:00:00 16.1 14 Noroeste 35 Noroeste 0 911.1 -0.9 32
2018-05-02 16:00:00 16.1 15 Noroeste 36 Noroeste 0 911.5 -0.8 31
2018-05-02 15:00:00 14.3 15 Noroeste 37 Noroeste 0 911.7 -1 36
2018-05-02 14:00:00 14.3 12 Noroeste 31 Noroeste 0 912 -0.8 35
2018-05-02 13:00:00 13.8 11 Oeste 28 Noroeste 0 912.3 -0.8 35
2018-05-02 12:00:00 13.8 8 Noroeste 30 Noroeste 0 912.7 -0.4 39
2018-05-02 11:00:00 11.7 10 Noroeste 21 Noroeste 0 912.8 0 43
2018-05-02 10:00:00 8.4 4 Sudeste 12 Sur 0 913.1 0.6 58
2018-05-02 09:00:00 5.5 8 Sudeste 14 Sudeste 0 913.1 0.4 71
2018-05-02 08:00:00 2.2 4 Sur 8 Sudeste 0 912.8 0 82
2018-05-02 07:00:00 -0.4 4 Sudeste 6 Sudeste 0 912.5 -0.4 90
2018-05-02 06:00:00 -0.8 3 Sur 5 Sudoeste 0 912.7 -0.5 89
2018-05-02 05:00:00 -0.3 0 Calma 6 Sur 0 912.8 -0.4 86
2018-05-02 04:00:00 0.1 2 Este 4 Este 0 912.9 -0.3 88
2018-05-02 03:00:00 0.8 2 Nordeste 5 Nordeste 0 913.2 0.1 84
2018-05-02 02:00:00 2 0 Calma 9 Sur 0 913.2 0.3 79
2018-05-02 01:00:00 3.2 0 Calma 7 Sudeste 0 913.2 0.7 75
2018-05-02 00:00:00 4.5 0 Calma 6 Sudeste 0 913.1 1.2 69
2018-05-01 23:00:00 5.8 3 Norte 9 Nordeste 0 912.9 1.5 64
2018-05-01 22:00:00 7.5 5 Norte 22 Este 0 912.5 1.4 56
2018-05-01 21:00:00 9.2 12 Nordeste 23 Nordeste 0 911.9 0.9 50
2018-05-01 20:00:00 10.9 13 Nordeste 28 Nordeste 0 911.4 0.1 40
2018-05-01 19:00:00 12.5 14 Norte 29 Norte 0 911.1 -0.8 34
2018-05-01 18:00:00 13.9 12 Noroeste 29 Noroeste 0 911 -1.3 29
2018-05-01 17:00:00 13.6 11 Norte 26 Noroeste 0 911.3 -1.3 34
2018-05-01 16:00:00 13 9 Noroeste 26 Norte 0 911.9 -1.2 33
2018-05-01 15:00:00 12.1 12 Noroeste 27 Norte 0 912.3 -1 42
2018-05-01 14:00:00 11.3 8 Norte 22 Noroeste 0 912.6 -0.5 45
2018-05-01 13:00:00 9.5 12 Noroeste 28 Noroeste 0 913.1 -0.2 53
2018-05-01 12:00:00 8.3 9 Norte 28 Norte 0 913.3 0.2 60
2018-05-01 11:00:00 8.2 9 Noroeste 22 Norte 0 913.1 0.2 62
2018-05-01 10:00:00 5.2 8 Noroeste 21 Noroeste 0 913.3 0.6 72
2018-05-01 09:00:00 4.3 7 Noroeste 16 Noroeste 0 913.1 0.6 83
2018-05-01 08:00:00 3.2 4 Norte 10 Norte 0 912.9 0.3 90
2018-05-01 07:00:00 2.9 3 Norte 6 Norte 0 912.7 0.2 93
2018-05-01 06:00:00 3 0 Calma 7 Sudeste 0 912.5 -0.1 92
2018-05-01 05:00:00 3.1 6 Sudeste 8 Sudeste 0 912.6 -0.4 92
2018-05-01 04:00:00 3 2 Sudoeste 6 Sudoeste 0 912.5 -0.6 92
2018-05-01 03:00:00 2.9 0 Calma 6 Sudoeste 0 912.6 -0.3 94
2018-05-01 02:00:00 2.5 2 Este 5 Sur 0 913 -0.1 94
2018-05-01 01:00:00 2.2 4 Este 8 Sudeste 0 913.1 0.5 93
2018-05-01 00:00:00 3.2 4 Sudeste 9 Sudoeste 0 912.9 0.7 89
2018-04-30 23:00:00 3.9 6 Sur 12 Sur 0 913.1 1.4 87
2018-04-30 22:00:00 4.5 4 Noroeste 28 Oeste 0 912.6 0.6 84
2018-04-30 21:00:00 5.7 7 Sudoeste 14 Sur 0 912.2 1.2 77
2018-04-30 20:00:00 5.6 3 Este 27 Noroeste 0.2 911.7 1.1 80
2018-04-30 19:00:00 5.8 17 Noroeste 33 Noroeste 0.8 912 1.2 83
2018-04-30 18:00:00 7.6 8 Norte 42 Oeste 0.2 911 -0.3 75
2018-04-30 17:00:00 10.5 10 Noroeste 20 Noroeste 0 910.6 -0.9 42
2018-04-30 16:00:00 10.7 8 Noroeste 23 Noroeste 0 910.8 -1.1 47
2018-04-30 15:00:00 10.4 5 Norte 27 Oeste 0 911.3 -0.9 45
2018-04-30 14:00:00 10.7 14 Oeste 27 Oeste 0 911.5 -0.6 33
2018-04-30 13:00:00 9.9 12 Oeste 26 Sudoeste 0 911.9 -0.2 40
2018-04-30 12:00:00 8.8 11 Oeste 27 Oeste 0 912.2 0 47
2018-04-30 11:00:00 8.6 8 Oeste 25 Oeste 0 912.1 0.1 53
2018-04-30 10:00:00 7.5 10 Oeste 22 Oeste 0 912.1 0.5 62
2018-04-30 09:00:00 5.3 4 Sudoeste 10 Noroeste 0 912.2 0.8 75
2018-04-30 08:00:00 3.5 3 Oeste 8 Sudeste 0 912 0.5 81
2018-04-30 07:00:00 2.7 4 Sudeste 8 Sudeste 0 911.6 0.2 86
2018-04-30 06:00:00 2.3 5 Sudeste 9 Sudeste 0 911.4 -0.4 86
2018-04-30 05:00:00 3.4 5 Oeste 9 Oeste 0 911.5 -0.7 80
2018-04-30 04:00:00 4 3 Oeste 13 Oeste 0 911.4 -0.7 79
2018-04-30 03:00:00 4.6 7 Oeste 19 Oeste 0 911.8 0.2 76
2018-04-30 02:00:00 5 4 Oeste 30 Oeste 0 912.2 0.6 76
2018-04-30 01:00:00 5.7 11 Oeste 30 Oeste 0 912.1 1 78
2018-04-30 00:00:00 4.7 5 Sur 12 Sur 0 911.6 1.6 73
2018-04-29 23:00:00 5.6 8 Sur 17 Sur 0 911.6 2.3 71
2018-04-29 22:00:00 7.2 6 Sudoeste 24 Sudoeste 0 911.1 2.3 63
2018-04-29 21:00:00 7.7 8 Sudoeste 34 Sudoeste 0 910 1.2 62
2018-04-29 20:00:00 8.8 13 Oeste 45 Oeste 0 909.3 1.7 58
2018-04-29 19:00:00 9.6 20 Oeste 50 Oeste 0 908.8 1.9 56
2018-04-29 18:00:00 8.7 20 Oeste 47 Oeste 0 908.8 2.4 60
2018-04-29 17:00:00 11.4 26 Oeste 51 Sudoeste 0 907.6 1.9 50
2018-04-29 16:00:00 11.7 22 Oeste 53 Oeste 0 906.9 1.1 47
2018-04-29 15:00:00 9 28 Oeste 55 Oeste 0 906.4 1 57
2018-04-29 14:00:00 9.5 26 Oeste 54 Oeste 0 905.7 0.7 52
2018-04-29 13:00:00 9.3 24 Oeste 54 Sudoeste 0 905.8 1 50
2018-04-29 12:00:00 8.8 28 Oeste 41 Oeste 0 905.4 0.8 53
2018-04-29 11:00:00 9.2 19 Oeste 36 Oeste 0 905 0.7 52
2018-04-29 10:00:00 8.4 15 Oeste 28 Sudoeste 0 904.8 0.9 57
2018-04-29 09:00:00 8.7 15 Sudoeste 33 Oeste 0 904.6 0.3 58
2018-04-29 08:00:00 9 18 Oeste 33 Oeste 0 904.3 -0.6 54
2018-04-29 07:00:00 8.6 10 Oeste 20 Oeste 0 903.9 -0.9 53
2018-04-29 06:00:00 9.7 9 Sudoeste 17 Oeste 0 904.3 -0.9 51
2018-04-29 05:00:00 9.7 4 Oeste 23 Oeste 0 904.9 -1 51
2018-04-29 04:00:00 10.1 10 Oeste 24 Noroeste 0 904.8 -1.6 49
2018-04-29 03:00:00 10.4 8 Sudoeste 17 Oeste 0 905.2 -1.1 50
2018-04-29 02:00:00 10.8 7 Sudoeste 17 Sudoeste 0 905.9 -0.5 51
2018-04-29 01:00:00 11.4 3 Norte 19 Noroeste 0 906.4 0.5 50
2018-04-29 00:00:00 12.2 5 Sudoeste 13 Este 0 906.3 0.7 47
2018-04-28 23:00:00 12.8 3 Sur 12 Sudeste 0 906.4 0.7 51
2018-04-28 22:00:00 14 5 Oeste 22 Oeste 0 905.9 0.3 51
2018-04-28 21:00:00 15.6 10 Oeste 24 Noroeste 0 905.6 -0.7 51
2018-04-28 20:00:00 17 9 Oeste 31 Sudoeste 0 905.7 -1.1 48
2018-04-28 19:00:00 19.4 14 Sudoeste 34 Sudoeste 0 905.6 -1.5 33
2018-04-28 18:00:00 20.3 14 Sudoeste 35 Sudoeste 0 906.3 -0.8 31
2018-04-28 17:00:00 20.7 18 Sudoeste 42 Oeste 0 906.8 -0.7 29
2018-04-28 16:00:00 19.9 22 Oeste 44 Oeste 0 907.1 -1 30
2018-04-28 15:00:00 21.8 15 Sudoeste 40 Sudoeste 0 907.1 -1.8 23
2018-04-28 14:00:00 22.1 16 Sudoeste 35 Oeste 0 907.5 -1.8 24
2018-04-28 13:00:00 21.6 18 Sur 35 Sudoeste 0 908.1 -1.8 29
2018-04-28 12:00:00 19.6 12 Sur 28 Sudoeste 0 908.9 -1.2 39
2018-04-28 11:00:00 18.2 11 Sudoeste 25 Sur 0 909.3 -0.7 44
2018-04-28 10:00:00 14.2 6 Sudeste 10 Sur 0 909.9 -0.1 66
2018-04-28 09:00:00 10.5 3 Oeste 5 Oeste 0 910.1 0 75
2018-04-28 08:00:00 6.8 2 Sur 5 Sudeste 0 910 -0.5 91
2018-04-28 07:00:00 5 2 Nordeste 8 Oeste 0 910 -0.6 93
2018-04-28 06:00:00 5.9 2 Sudoeste 9 Sur 0 910.1 -0.9 90
2018-04-28 05:00:00 6.4 2 Sudeste 3 Sur 0 910.5 -1 89
2018-04-28 04:00:00 7.3 0 Calma 3 Noroeste 0 910.6 -1.1 88
2018-04-28 03:00:00 8.2 2 Norte 8 Norte 0 911 -0.8 86
2018-04-28 02:00:00 9 4 Norte 9 Norte 0 911.5 -0.2 85
2018-04-28 01:00:00 10.3 4 Norte 14 Nordeste 0 911.7 0.4 83
2018-04-28 00:00:00 12 4 Noroeste 15 Norte 0 911.8 1.4 78
2018-04-27 23:00:00 13.6 4 Norte 8 Norte 0 911.7 1.8 79
2018-04-27 22:00:00 15.2 3 Norte 12 Este 0 911.3 1.3 70
2018-04-27 21:00:00 17.4 12 Este 21 Este 0 910.4 0.6 58
2018-04-27 20:00:00 18.5 18 Este 32 Este 0 909.9 0.3 55
2018-04-27 19:00:00 19.5 23 Este 36 Este 0 910 -0.1 52
2018-04-27 18:00:00 20.1 25 Este 36 Este 0 909.8 -0.9 54
2018-04-27 17:00:00 22.5 8 Norte 21 Nordeste 0 909.6 -1.8 46
2018-04-27 16:00:00 22.4 10 Norte 25 Norte 0 910.1 -1.8 47
2018-04-27 15:00:00 22.3 5 Norte 22 Noroeste 0 910.7 -1.7 45
2018-04-27 14:00:00 22.5 8 Norte 23 Noroeste 0 911.4 -1.2 46
2018-04-27 13:00:00 21.5 5 Norte 15 Norte 0 911.9 -0.7 49
2018-04-27 12:00:00 21 5 Norte 17 Sudoeste 0 912.4 -0.2 51
2018-04-27 11:00:00 19.9 8 Sudeste 14 Sur 0 912.6 0 53
2018-04-27 10:00:00 17.1 5 Sudeste 8 Sur 0 912.6 0.2 59
2018-04-27 09:00:00 13.5 3 Sudoeste 8 Sur 0 912.6 0.6 72
2018-04-27 08:00:00 9.5 3 Sur 7 Oeste 0 912.6 0.2 89
2018-04-27 07:00:00 8.3 3 Nordeste 6 Norte 0 912.4 -0.6 90
2018-04-27 06:00:00 9.8 3 Sudoeste 10 Sudeste 0 912 -1.4 82
2018-04-27 05:00:00 10.2 2 Sur 8 Sudeste 0 912.4 -1.4 83
2018-04-27 04:00:00 10.7 2 Sudoeste 5 Oeste 0 913 -1.2 83
2018-04-27 03:00:00 12.1 3 Noroeste 8 Sudeste 0 913.4 -0.9 75
2018-04-27 02:00:00 12.9 5 Sudeste 7 Sudeste 0 913.8 -0.8 73
2018-04-27 01:00:00 13 3 Sudeste 5 Sudeste 0 914.2 -0.2 72
2018-04-27 00:00:00 14 0 Calma 5 Este 0 914.3 0.5 67
2018-04-26 23:00:00 15.3 3 Noroeste 11 Noroeste 0 914.6 1.2 61
2018-04-26 22:00:00 16.2 5 Norte 21 Norte 0 914.4 0.7 56
2018-04-26 21:00:00 19.4 8 Este 23 Este 0 913.8 0 47
2018-04-26 20:00:00 22.5 5 Nordeste 18 Norte 0 913.4 -0.8 34
2018-04-26 19:00:00 23.5 8 Norte 22 Nordeste 0 913.7 -1.2 31
2018-04-26 18:00:00 25.2 5 Norte 15 Noroeste 0 913.8 -1.8 29
2018-04-26 17:00:00 24.8 5 Norte 17 Noroeste 0 914.2 -2.2 28
2018-04-26 16:00:00 23 7 Nordeste 12 Noroeste 0 914.9 -2.2 31
2018-04-26 15:00:00 23.2 6 Oeste 14 Oeste 0 915.6 -2.2 33
2018-04-26 14:00:00 20.9 5 Noroeste 14 Noroeste 0 916.4 -1.7 39
2018-04-26 13:00:00 18.8 5 Noroeste 14 Noroeste 0 917.1 -1.5 50
2018-04-26 12:00:00 16.1 5 Noroeste 10 Noroeste 0 917.8 -0.8 55
2018-04-26 11:00:00 14.1 4 Noroeste 11 Noroeste 0 918.1 -0.2 59
2018-04-26 10:00:00 12 4 Este 12 Nordeste 0 918.6 0.5 68
2018-04-26 09:00:00 10.4 5 Norte 13 Nordeste 0 918.6 0.4 73
2018-04-26 08:00:00 7.3 3 Noroeste 11 Noroeste 0 918.3 0.1 87
2018-04-26 07:00:00 7.9 4 Norte 22 Nordeste 0 918.1 -0.5 83
2018-04-26 06:00:00 8.3 6 Norte 21 Norte 0 918.2 -0.9 83
2018-04-26 05:00:00 8.4 7 Norte 17 Nordeste 0 918.2 -1.3 83
2018-04-26 04:00:00 9 6 Norte 19 Norte 0 918.6 -1.1 81
2018-04-26 03:00:00 9.4 5 Norte 16 Norte 0 919.1 -0.2 81
2018-04-26 02:00:00 9.8 9 Norte 20 Norte 0 919.5 0.3 83
2018-04-26 01:00:00 9.9 7 Noroeste 23 Norte 0 919.7 1.4 83
2018-04-26 00:00:00 10.6 7 Norte 24 Noroeste 0 919.3 2.1 83
2018-04-25 23:00:00 11.7 8 Norte 20 Norte 0 919.2 3.1 81
2018-04-25 22:00:00 13.8 9 Norte 30 Nordeste 0 918.3 2.4 75
2018-04-25 21:00:00 17.4 16 Norte 29 Nordeste 0 917.2 1.5 65
2018-04-25 20:00:00 21.8 13 Nordeste 27 Nordeste 0 916.1 0.2 32
2018-04-25 19:00:00 22.9 14 Nordeste 30 Este 0 915.9 -0.1 27
2018-04-25 18:00:00 23.7 14 Nordeste 27 Este 0 915.7 -0.7 25
2018-04-25 17:00:00 24.6 10 Nordeste 27 Norte 0 915.9 -0.8 24
2018-04-25 16:00:00 24.3 15 Nordeste 32 Norte 0 916 -0.9 23
2018-04-25 15:00:00 24.3 13 Norte 33 Norte 0 916.4 -1.1 27
2018-04-25 14:00:00 23.8 15 Nordeste 32 Norte 0 916.7 -1.3 28
2018-04-25 13:00:00 24.2 6 Nordeste 21 Nordeste 0 916.9 -1.2 29
2018-04-25 12:00:00 20.8 7 Norte 15 Norte 0 917.5 -0.9 42
2018-04-25 11:00:00 17 4 Noroeste 8 Noroeste 0 918 -0.2 54
2018-04-25 10:00:00 13 2 Este 4 Nordeste 0 918.1 0.6 65
2018-04-25 09:00:00 10.1 3 Sudeste 10 Sudoeste 0 918.4 1.4 76
2018-04-25 08:00:00 7.2 2 Sudoeste 7 Sudeste 0 918.2 1.2 85
2018-04-25 07:00:00 6.9 0 Calma 7 Sudeste 0 917.5 0.7 86
2018-04-25 06:00:00 7.9 0 Calma 12 Sur 0 917 -0.5 82
2018-04-25 05:00:00 9.5 8 Sudeste 11 Sudeste 0 917 -0.6 77
2018-04-25 04:00:00 9.7 6 Sudeste 12 Sudeste 0 916.8 -0.9 77
2018-04-25 03:00:00 10 0 Calma 3 Noroeste 0 917.5 0 79
2018-04-25 02:00:00 11.4 0 Calma 10 Sudeste 0 917.6 0.2 73
2018-04-25 01:00:00 12.3 4 Sur 8 Sudeste 0 917.7 0.7 69
2018-04-25 00:00:00 14.2 2 Sudoeste 9 Sudeste 0 917.5 1 65
2018-04-24 23:00:00 15.9 5 Este 11 Este 0 917.4 1.2 57
2018-04-24 22:00:00 17.4 4 Este 23 Este 0 917 0.7 52
2018-04-24 21:00:00 19 17 Este 22 Este 0 916.5 0.3 49
2018-04-24 20:00:00 21.2 15 Este 21 Este 0 916.2 -0.2 45
2018-04-24 19:00:00 23.2 10 Sur 29 Sudoeste 0 916.3 -0.3 27
2018-04-24 18:00:00 24.5 18 Sudoeste 32 Sudoeste 0 916.2 -0.8 22
2018-04-24 17:00:00 25.2 18 Sudoeste 35 Sudoeste 0 916.4 -0.8 20
2018-04-24 16:00:00 25.9 11 Sudoeste 24 Sudeste 0 916.6 -1.2 24
2018-04-24 15:00:00 24.6 10 Este 22 Sudeste 0 917 -1.5 30
2018-04-24 14:00:00 24.4 8 Sudeste 21 Este 0 917.2 -1.8 28
2018-04-24 13:00:00 22.7 5 Noroeste 12 Nordeste 0 917.8 -1.2 33
2018-04-24 12:00:00 19.5 3 Nordeste 6 Sur 0 918.5 -0.5 42
2018-04-24 11:00:00 16 4 Sudeste 8 Sudeste 0 919 0.2 58
2018-04-24 10:00:00 12.5 3 Sur 6 Sur 0 919 0.7 69
2018-04-24 09:00:00 8.3 2 Oeste 5 Noroeste 0 919 0.8 83
2018-04-24 08:00:00 6.1 5 Sudeste 7 Sudeste 0 918.8 0.6 90
2018-04-24 07:00:00 6 2 Sudoeste 7 Este 0 918.3 -0.1 90
2018-04-24 06:00:00 6.8 3 Sudeste 9 Sudoeste 0 918.2 -0.5 87
2018-04-24 05:00:00 7.1 4 Nordeste 5 Nordeste 0 918.2 -0.6 88
2018-04-24 04:00:00 7.9 3 Sudeste 5 Noroeste 0 918.4 -0.7 86
2018-04-24 03:00:00 8.7 2 Noroeste 10 Sudeste 0 918.7 0 81
2018-04-24 02:00:00 10.1 7 Sudeste 9 Sudeste 0 918.8 -0.1 75
2018-04-24 01:00:00 10.8 2 Nordeste 8 Este 0 919.1 0.1 74
2018-04-24 00:00:00 11.1 3 Nordeste 8 Nordeste 0 918.7 0 73
2018-04-23 23:00:00 12.9 2 Sudoeste 9 Este 0 918.9 0.4 64
2018-04-23 22:00:00 14.7 3 Sudoeste 17 Este 0 919 0.4 57
2018-04-23 21:00:00 15.6 10 Este 23 Nordeste 0 918.7 0 58
2018-04-23 20:00:00 17.2 10 Nordeste 28 Este 0 918.5 0.2 51
2018-04-23 19:00:00 17.3 17 Este 23 Este 0 918.6 0 55
2018-04-23 18:00:00 18.2 13 Nordeste 37 Nordeste 0 918.7 -0.5 52
2018-04-23 17:00:00 20.7 15 Norte 32 Norte 0 918.3 -0.6 47
2018-04-23 16:00:00 20.9 10 Nordeste 21 Nordeste 0 918.6 0.2 50
2018-04-23 15:00:00 18 4 Noroeste 9 Oeste 0 919.2 -1.1 62
2018-04-23 14:00:00 15.6 4 Noroeste 10 Noroeste 0 918.9 -0.6 66
2018-04-23 13:00:00 14.2 5 Norte 17 Nordeste 0.4 918.4 -0.8 77
2018-04-23 12:00:00 14.9 11 Sudoeste 17 Sudoeste 0 920.3 1.9 60
2018-04-23 11:00:00 13.4 4 Sudoeste 14 Sudeste 0.2 919.5 1 68
2018-04-23 10:00:00 12.2 6 Sudeste 22 Sudoeste 0 919.2 1.2 68
2018-04-23 09:00:00 10.7 7 Este 14 Sudoeste 0 918.4 0.7 75
2018-04-23 08:00:00 9.8 3 Sur 5 Sur 0 918.5 0.6 76
2018-04-23 07:00:00 9.2 4 Nordeste 10 Norte 0 918 0.5 77
2018-04-23 06:00:00 10 4 Sudoeste 11 Este 0 917.7 -0.1 72
2018-04-23 05:00:00 9.7 3 Sur 10 Sudeste 0 917.9 -0.1 72
2018-04-23 04:00:00 9.9 9 Sudeste 13 Sudeste 0 917.5 -0.2 69
2018-04-23 03:00:00 9.8 5 Sudeste 10 Oeste 0 917.8 0.7 72
2018-04-23 02:00:00 11.2 4 Sudeste 10 Sudeste 0 918 1.1 62
2018-04-23 01:00:00 12.4 6 Sudeste 10 Sudeste 0 917.7 0.9 57
2018-04-23 00:00:00 13.1 4 Nordeste 15 Sudoeste 0 917.1 1 56
2018-04-22 23:00:00 14.1 3 Sudeste 12 Sudeste 0 916.9 1.3 57
2018-04-22 22:00:00 16.1 4 Sur 13 Norte 0 916.8 1.5 49
2018-04-22 21:00:00 17.5 4 Norte 20 Norte 0 916.1 1.6 49
2018-04-22 20:00:00 21 3 Sur 9 Oeste 0 915.6 1.4 41
2018-04-22 19:00:00 22.2 4 Sur 27 Sudeste 0 915.3 0.8 39
2018-04-22 18:00:00 22.7 20 Sudeste 32 Sudeste 0 914.5 -0.8 36
2018-04-22 17:00:00 23.3 14 Sudeste 37 Sur 0 914.2 -1.8 32
2018-04-22 16:00:00 25.6 3 Noroeste 9 Noroeste 0 914.5 -2.3 33
2018-04-22 15:00:00 23.9 5 Sudoeste 12 Noroeste 0 915.3 -1.5 37
2018-04-22 14:00:00 20.8 5 Noroeste 11 Noroeste 0 916 -1.3 44
2018-04-22 13:00:00 16.4 5 Sudoeste 16 Sur 0 916.8 -1.3 59
2018-04-22 12:00:00 12.7 4 Sudeste 10 Oeste 0 916.8 -0.9 70
2018-04-22 11:00:00 10.7 4 Nordeste 10 Sudeste 0 917.3 -0.1 75
2018-04-22 10:00:00 10.4 8 Sur 13 Sur 0 918.1 0.7 75
2018-04-22 09:00:00 9.9 6 Sur 9 Sur 0 917.7 0.4 78
2018-04-22 08:00:00 7.2 4 Sur 10 Sudeste 0 917.4 -0.2 83
2018-04-22 07:00:00 7.1 7 Sudeste 9 Sudeste 0 917.4 -0.3 82
2018-04-22 06:00:00 7.9 4 Sudeste 10 Sudeste 0 917.3 -0.9 81
2018-04-22 05:00:00 7.9 3 Sur 5 Sudeste 0 917.6 -0.9 82
2018-04-22 04:00:00 8.4 0 Calma 7 Sudeste 0 917.7 -0.9 84
2018-04-22 03:00:00 8.8 0 Calma 12 Sudeste 0 918.2 0 80
2018-04-22 02:00:00 9.6 2 Noroeste 16 Sudeste 0 918.5 0.3 78
2018-04-22 01:00:00 10 9 Sudeste 14 Sudeste 0 918.6 0.8 75
2018-04-22 00:00:00 11.3 6 Sur 10 Este 0 918.2 0.7 68